createdAt,value
2022-08-02T00:00:40.637Z,71.50
2022-08-02T00:03:09.772Z,71.20
2022-08-02T00:05:37.800Z,71.51
2022-08-02T00:08:08.280Z,71.42
2022-08-02T00:10:36.129Z,71.35
2022-08-02T00:13:04.164Z,71.41
2022-08-02T00:15:32.093Z,71.51
2022-08-02T00:18:00.030Z,71.47
2022-08-02T00:20:27.989Z,71.64
2022-08-02T00:22:55.889Z,71.67
2022-08-02T00:25:23.773Z,71.89
2022-08-02T00:27:51.652Z,71.88
2022-08-02T00:30:19.611Z,71.83
2022-08-02T00:32:47.520Z,71.86
2022-08-02T00:35:15.358Z,71.78
2022-08-02T00:37:43.493Z,72.03
2022-08-02T00:40:11.911Z,72.11
2022-08-02T00:42:40.350Z,72.13
2022-08-02T00:45:08.480Z,72.32
2022-08-02T00:47:36.400Z,72.13
2022-08-02T00:50:04.551Z,72.32
2022-08-02T00:52:32.409Z,72.36
2022-08-02T00:55:00.254Z,72.14
2022-08-02T00:57:28.167Z,72.19
2022-08-02T00:59:56.038Z,72.34
2022-08-02T01:02:24.097Z,72.58
2022-08-02T01:04:52.033Z,72.52
2022-08-02T01:07:19.891Z,72.47
2022-08-02T01:09:47.948Z,72.46
2022-08-02T01:12:16.244Z,72.49
2022-08-02T01:14:46.371Z,72.43
2022-08-02T01:17:29.338Z,72.68
2022-08-02T01:20:03.357Z,72.85
2022-08-02T01:23:04.293Z,72.42
2022-08-02T01:25:51.412Z,72.37
2022-08-02T01:28:22.222Z,72.51
2022-08-02T01:30:55.532Z,72.58
2022-08-02T01:33:25.562Z,72.94
2022-08-02T01:35:55.208Z,72.77
2022-08-02T01:38:43.529Z,72.90
2022-08-02T01:41:15.458Z,72.95
2022-08-02T01:43:44.823Z,72.99
2022-08-02T01:46:14.172Z,73.11
2022-08-02T01:48:42.947Z,73.13
2022-08-02T01:51:12.504Z,73.07
2022-08-02T01:53:42.774Z,73.06
2022-08-02T01:56:12.071Z,73.06
2022-08-02T01:58:41.106Z,73.32
2022-08-02T02:01:14.454Z,73.19
2022-08-02T02:03:47.693Z,73.14
2022-08-02T02:06:16.430Z,73.34
2022-08-02T02:08:44.861Z,73.31
2022-08-02T02:12:10.153Z,73.52
2022-08-02T02:14:02.299Z,73.37
2022-08-02T02:16:32.216Z,73.53
2022-08-02T02:19:04.330Z,73.66
2022-08-02T02:21:32.295Z,73.57
2022-08-02T02:24:03.947Z,73.44
2022-08-02T02:26:36.160Z,73.77
2022-08-02T02:29:08.786Z,73.62
2022-08-02T02:31:38.692Z,73.82
2022-08-02T02:34:06.941Z,73.74
2022-08-02T02:36:35.367Z,73.99
2022-08-02T02:39:04.104Z,73.87
2022-08-02T02:41:32.066Z,73.87
2022-08-02T02:44:02.576Z,73.80
2022-08-02T02:46:31.538Z,73.94
2022-08-02T02:49:00.220Z,74.08
2022-08-02T02:51:28.791Z,74.39
2022-08-02T02:54:32.903Z,74.29
2022-08-02T02:56:45.874Z,74.13
2022-08-02T02:59:15.463Z,74.33
2022-08-02T03:01:57.372Z,74.55
2022-08-02T03:04:56.426Z,74.28
2022-08-02T03:07:16.194Z,74.39
2022-08-02T03:09:44.250Z,74.30
2022-08-02T03:12:15.365Z,74.66
2022-08-02T03:14:49.374Z,74.83
2022-08-02T03:17:17.658Z,74.66
2022-08-02T03:19:46.071Z,74.78
2022-08-02T03:22:14.159Z,74.71
2022-08-02T03:24:42.224Z,74.68
2022-08-02T03:27:10.106Z,74.61
2022-08-02T03:29:38.025Z,74.74
2022-08-02T03:32:06.065Z,74.73
2022-08-02T03:34:33.956Z,74.57
2022-08-02T03:37:02.617Z,74.56
2022-08-02T03:39:32.699Z,74.32
2022-08-02T03:42:01.218Z,74.51
2022-08-02T03:44:30.545Z,74.34
2022-08-02T03:46:58.858Z,74.29
2022-08-02T03:49:27.528Z,74.32
2022-08-02T03:51:55.899Z,74.35
2022-08-02T03:54:23.820Z,74.49
2022-08-02T03:57:02.955Z,74.35
2022-08-02T03:59:39.865Z,74.10
2022-08-02T04:02:09.018Z,74.13
2022-08-02T04:04:37.610Z,74.33
2022-08-02T04:07:07.422Z,74.18
2022-08-02T04:09:35.765Z,74.13
2022-08-02T04:12:03.899Z,73.92
2022-08-02T04:14:36.504Z,73.98
2022-08-02T04:17:07.660Z,73.86
2022-08-02T04:19:41.574Z,73.66
2022-08-02T04:22:14.693Z,73.60
2022-08-02T04:24:52.674Z,73.64
2022-08-02T04:27:51.057Z,73.34
2022-08-02T04:30:09.224Z,73.45
2022-08-02T04:32:37.782Z,73.22
2022-08-02T04:35:21.954Z,73.02
2022-08-02T04:38:05.657Z,72.83
2022-08-02T04:40:38.866Z,72.76
2022-08-02T04:43:06.751Z,72.31
2022-08-02T04:45:36.177Z,72.19
2022-08-02T04:48:05.354Z,72.02
2022-08-02T04:50:35.027Z,71.86
2022-08-02T04:53:03.003Z,71.85
2022-08-02T04:55:30.818Z,72.03
2022-08-02T04:57:58.895Z,71.66
2022-08-02T05:00:27.919Z,71.55
2022-08-02T05:02:56.811Z,71.08
2022-08-02T05:05:25.059Z,70.90
2022-08-02T05:07:52.983Z,70.66
2022-08-02T05:10:20.948Z,70.39
2022-08-02T05:12:48.885Z,70.29
2022-08-02T05:15:18.582Z,70.24
2022-08-02T05:17:48.659Z,69.77
2022-08-02T05:20:18.014Z,69.68
2022-08-02T05:22:46.562Z,69.11
2022-08-02T05:25:14.884Z,68.99
2022-08-02T05:27:42.818Z,68.76
2022-08-02T05:30:11.139Z,68.57
2022-08-02T05:32:46.448Z,68.78
2022-08-02T05:35:17.406Z,68.63
2022-08-02T05:37:45.284Z,68.54
2022-08-02T05:40:16.567Z,68.44
2022-08-02T05:42:44.992Z,67.90
2022-08-02T05:45:13.065Z,67.78
2022-08-02T05:47:41.256Z,67.68
2022-08-02T05:50:09.500Z,67.40
2022-08-02T05:53:02.229Z,67.44
2022-08-02T05:55:42.969Z,66.91
2022-08-02T05:58:10.775Z,66.89
2022-08-02T06:00:40.191Z,66.63
2022-08-02T06:03:08.048Z,66.70
2022-08-02T06:05:40.287Z,66.68
2022-08-02T06:08:11.180Z,66.93
2022-08-02T06:10:40.676Z,66.62
2022-08-02T06:13:08.480Z,66.46
2022-08-02T06:15:52.647Z,65.73
2022-08-02T06:18:27.866Z,65.65
2022-08-02T06:22:32.328Z,65.09
2022-08-02T06:23:59.011Z,65.03
2022-08-02T06:26:28.318Z,64.71
2022-08-02T06:28:57.403Z,64.44
2022-08-02T06:31:25.900Z,64.36
2022-08-02T06:33:54.052Z,63.83
2022-08-02T06:36:37.994Z,63.63
2022-08-02T06:39:14.680Z,63.57
2022-08-02T06:41:42.899Z,63.45
2022-08-02T06:47:11.923Z,63.09
2022-08-02T06:49:51.680Z,62.70
2022-08-02T06:52:29.748Z,62.53
2022-08-02T06:55:00.256Z,62.32
2022-08-02T06:57:28.994Z,62.18
2022-08-02T06:59:57.283Z,61.82
2022-08-02T07:02:25.185Z,62.05
2022-08-02T07:04:53.234Z,62.01
2022-08-02T07:07:21.168Z,62.01
2022-08-02T07:10:00.218Z,62.01
2022-08-02T07:12:30.760Z,61.72
2022-08-02T07:15:00.134Z,61.57
2022-08-02T07:17:28.550Z,61.12
2022-08-02T07:19:56.957Z,61.42
2022-08-02T07:22:27.552Z,61.12
2022-08-02T07:24:56.966Z,61.27
2022-08-02T07:27:26.038Z,61.03
2022-08-02T07:29:54.238Z,61.15
2022-08-02T07:32:23.880Z,60.76
2022-08-02T07:34:54.200Z,60.15
2022-08-02T07:37:53.013Z,59.83
2022-08-02T07:40:19.584Z,59.16
2022-08-02T07:42:52.296Z,58.78
2022-08-02T07:45:22.063Z,57.80
2022-08-02T07:47:50.607Z,57.20
2022-08-02T07:50:20.178Z,56.98
2022-08-02T07:52:48.522Z,56.36
2022-08-02T07:55:18.404Z,55.77
2022-08-02T07:57:47.136Z,55.02
2022-08-02T08:00:17.481Z,54.38
2022-08-02T08:02:45.710Z,53.97
2022-08-02T08:05:13.851Z,53.15
2022-08-02T08:07:41.759Z,53.21
2022-08-02T08:10:10.131Z,52.98
2022-08-02T08:12:38.073Z,52.33
2022-08-02T08:15:06.584Z,51.72
2022-08-02T08:17:35.277Z,51.84
2022-08-02T08:20:04.400Z,50.92
2022-08-02T08:22:32.311Z,51.35
2022-08-02T08:25:00.211Z,50.61
2022-08-02T08:27:28.135Z,50.02
2022-08-02T08:29:56.248Z,49.92
2022-08-02T08:32:24.593Z,49.22
2022-08-02T08:34:54.146Z,48.80
2022-08-02T08:37:22.159Z,49.41
2022-08-02T08:39:58.384Z,48.96
2022-08-02T08:42:27.594Z,48.49
2022-08-02T08:44:56.815Z,48.28
2022-08-02T08:47:45.778Z,47.35
2022-08-02T08:50:24.843Z,47.88
2022-08-02T08:52:57.091Z,47.01
2022-08-02T08:55:26.726Z,46.50
2022-08-02T08:57:55.095Z,46.35
2022-08-02T09:00:22.973Z,46.64
2022-08-02T09:02:50.974Z,46.22
2022-08-02T09:05:19.182Z,45.66
2022-08-02T09:07:51.121Z,43.97
2022-08-02T09:10:31.992Z,43.89
2022-08-02T09:13:38.368Z,44.65
2022-08-02T09:15:56.507Z,44.05
2022-08-02T09:18:34.885Z,43.19
2022-08-02T09:21:07.077Z,41.20
2022-08-02T09:23:39.546Z,40.60
2022-08-02T09:26:08.819Z,40.45
2022-08-02T09:28:38.052Z,40.89
2022-08-02T09:31:09.867Z,40.19
2022-08-02T09:33:38.995Z,39.11
2022-08-02T09:36:12.838Z,39.52
2022-08-02T09:38:42.355Z,40.21
2022-08-02T09:41:26.845Z,39.73
2022-08-02T09:44:04.792Z,39.72
2022-08-02T09:46:39.386Z,38.35
2022-08-02T09:49:08.480Z,38.41
2022-08-02T09:51:41.203Z,38.05
2022-08-02T09:54:12.118Z,38.16
2022-08-02T09:56:42.063Z,38.29
2022-08-02T09:59:10.478Z,38.49
2022-08-02T10:01:39.182Z,37.96
2022-08-02T10:04:17.083Z,37.47
2022-08-02T10:06:50.765Z,37.22
2022-08-02T10:09:19.782Z,36.59
2022-08-02T10:11:48.101Z,36.29
2022-08-02T10:14:16.366Z,36.22
2022-08-02T10:16:44.253Z,34.91
2022-08-02T10:19:12.256Z,33.07
2022-08-02T10:21:50.078Z,32.15
2022-08-02T10:24:20.943Z,32.85
2022-08-02T10:26:49.782Z,33.08
2022-08-02T10:29:19.315Z,33.30
2022-08-02T10:31:59.867Z,32.80
2022-08-02T10:34:31.921Z,32.59
2022-08-02T10:37:03.007Z,32.88
2022-08-02T10:39:41.113Z,32.37
2022-08-02T10:42:09.320Z,32.56
2022-08-02T10:44:40.433Z,32.46
2022-08-02T10:47:18.823Z,32.02
2022-08-02T10:49:57.357Z,31.86
2022-08-02T10:52:29.439Z,31.58
2022-08-02T10:55:01.975Z,31.15
2022-08-02T10:57:31.930Z,30.62
2022-08-02T11:00:17.418Z,29.53
2022-08-02T11:02:53.211Z,28.70
2022-08-02T11:05:27.637Z,29.05
2022-08-02T11:08:20.825Z,29.69
2022-08-02T11:10:48.725Z,29.05
2022-08-02T11:13:17.720Z,28.69
2022-08-02T11:15:53.816Z,27.63
2022-08-02T11:18:22.337Z,28.18
2022-08-02T11:21:09.956Z,28.25
2022-08-02T11:23:44.506Z,28.31
2022-08-02T11:26:29.116Z,28.68
2022-08-02T11:28:58.004Z,27.03
2022-08-02T11:31:27.357Z,26.95
2022-08-02T11:33:55.939Z,27.75
2022-08-02T11:36:24.301Z,27.58
2022-08-02T11:39:08.192Z,26.79
2022-08-02T11:41:45.888Z,27.08
2022-08-02T11:44:15.845Z,26.79
2022-08-02T11:46:43.855Z,27.16
2022-08-02T11:49:13.654Z,27.27
2022-08-02T11:52:00.480Z,27.21
2022-08-02T11:54:30.184Z,27.00
2022-08-02T11:57:20.123Z,26.58
2022-08-02T11:59:50.480Z,25.63
2022-08-02T12:02:19.437Z,26.26
2022-08-02T12:04:54.618Z,26.23
2022-08-02T12:07:34.876Z,26.06
2022-08-02T12:10:06.091Z,25.71
2022-08-02T12:12:34.662Z,26.02
2022-08-02T12:15:02.561Z,25.59
2022-08-02T12:17:48.912Z,25.42
2022-08-02T12:20:17.449Z,26.29
2022-08-02T12:22:45.404Z,26.61
2022-08-02T12:25:34.509Z,25.98
2022-08-02T12:28:22.533Z,26.61
2022-08-02T12:30:58.917Z,26.65
2022-08-02T12:33:44.121Z,26.63
2022-08-02T12:36:22.336Z,26.88
2022-08-02T12:38:50.969Z,26.47
2022-08-02T12:41:30.495Z,27.01
2022-08-02T12:44:00.808Z,27.94
2022-08-02T12:46:28.599Z,28.26
2022-08-02T12:49:16.888Z,27.97
2022-08-02T12:51:56.647Z,27.14
2022-08-02T12:54:38.568Z,28.06
2022-08-02T12:57:13.468Z,27.94
2022-08-02T12:59:42.489Z,28.42
2022-08-02T13:02:12.037Z,28.71
2022-08-02T13:04:41.335Z,29.24
2022-08-02T13:07:09.572Z,29.53
2022-08-02T13:09:38.916Z,29.57
2022-08-02T13:12:07.696Z,30.14
2022-08-02T13:14:41.987Z,29.97
2022-08-02T13:17:10.705Z,30.36
2022-08-02T13:19:39.115Z,30.74
2022-08-02T13:22:11.545Z,30.94
2022-08-02T13:24:55.814Z,30.47
2022-08-02T13:27:26.123Z,30.82
2022-08-02T13:29:55.080Z,30.88
2022-08-02T13:32:24.079Z,30.88
2022-08-02T13:34:51.945Z,30.68
2022-08-02T13:37:19.826Z,30.84
2022-08-02T13:40:05.457Z,30.78
2022-08-02T13:42:35.829Z,30.86
2022-08-02T13:45:12.771Z,30.93
2022-08-02T13:48:03.413Z,30.69
2022-08-02T13:50:31.140Z,31.17
2022-08-02T13:52:59.159Z,31.30
2022-08-02T13:55:28.211Z,31.70
2022-08-02T13:57:57.070Z,31.82
2022-08-02T14:00:34.826Z,31.94
2022-08-02T14:03:05.173Z,31.25
2022-08-02T14:05:39.313Z,31.01
2022-08-02T14:08:17.492Z,31.40
2022-08-02T14:10:46.662Z,31.49
2022-08-02T14:13:14.845Z,31.22
2022-08-02T14:15:43.352Z,31.14
2022-08-02T14:18:12.076Z,31.49
2022-08-02T14:20:40.004Z,31.29
2022-08-02T14:23:07.870Z,31.29
2022-08-02T14:25:35.997Z,31.54
2022-08-02T14:28:04.732Z,31.66
2022-08-02T14:30:32.731Z,32.00
2022-08-02T14:33:00.803Z,32.28
2022-08-02T14:35:28.789Z,32.15
2022-08-02T14:37:56.903Z,31.58
2022-08-02T14:40:27.717Z,31.94
2022-08-02T14:42:56.308Z,32.02
2022-08-02T14:45:26.387Z,31.72
2022-08-02T14:48:05.010Z,31.70
2022-08-02T14:50:33.981Z,31.60
2022-08-02T14:53:01.790Z,31.41
2022-08-02T14:55:29.605Z,31.56
2022-08-02T14:57:57.486Z,31.68
2022-08-02T15:00:25.348Z,31.23
2022-08-02T15:02:53.872Z,31.54
2022-08-02T15:05:21.896Z,31.66
2022-08-02T15:07:49.919Z,31.71
2022-08-02T15:10:18.984Z,32.09
2022-08-02T15:12:46.998Z,31.82
2022-08-02T15:15:15.012Z,31.57
2022-08-02T15:17:43.021Z,31.43
2022-08-02T15:20:25.195Z,31.61
2022-08-02T15:22:54.573Z,31.76
2022-08-02T15:25:22.501Z,31.76
2022-08-02T15:27:50.476Z,31.68
2022-08-02T15:30:19.466Z,31.27
2022-08-02T15:32:52.558Z,31.18
2022-08-02T15:35:21.794Z,31.12
2022-08-02T15:37:49.759Z,30.73
2022-08-02T15:40:17.798Z,30.65
2022-08-02T15:42:45.841Z,30.24
2022-08-02T15:45:15.492Z,30.44
2022-08-02T15:47:47.870Z,30.68
2022-08-02T15:50:16.393Z,30.85
2022-08-02T15:52:44.392Z,30.65
2022-08-02T15:55:12.367Z,31.05
2022-08-02T15:57:40.424Z,31.13
2022-08-02T16:00:17.799Z,31.27
2022-08-02T16:02:47.567Z,31.32
2022-08-02T16:05:18.442Z,31.47
2022-08-02T16:07:46.983Z,31.93
2022-08-02T16:10:15.852Z,32.50
2022-08-02T16:12:43.925Z,32.65
2022-08-02T16:15:12.867Z,32.84
2022-08-02T16:17:53.749Z,33.04
2022-08-02T16:20:23.120Z,33.45
2022-08-02T16:22:51.089Z,33.68
2022-08-02T16:25:19.113Z,33.77
2022-08-02T16:27:57.888Z,33.91
2022-08-02T16:30:35.348Z,34.18
2022-08-02T16:33:03.445Z,34.37
2022-08-02T16:35:31.637Z,34.54
2022-08-02T16:37:59.668Z,34.89
2022-08-02T16:40:27.675Z,34.75
2022-08-02T16:42:55.573Z,34.94
2022-08-02T16:45:23.945Z,34.92
2022-08-02T16:47:57.413Z,34.81
2022-08-02T16:50:28.743Z,34.95
2022-08-02T16:52:57.773Z,34.75
2022-08-02T16:55:29.177Z,34.98
2022-08-02T16:58:01.140Z,34.87
2022-08-02T17:00:29.474Z,35.31
2022-08-02T17:02:59.215Z,35.52
2022-08-02T17:05:38.228Z,35.58
2022-08-02T17:08:19.747Z,35.95
2022-08-02T17:10:47.725Z,36.06
2022-08-02T17:13:16.416Z,36.06
2022-08-02T17:16:08.621Z,36.47
2022-08-02T17:18:34.171Z,36.47
2022-08-02T17:21:06.193Z,36.60
2022-08-02T17:23:47.003Z,36.61
2022-08-02T17:26:24.575Z,36.81
2022-08-02T17:29:14.058Z,37.11
2022-08-02T17:31:43.648Z,37.51
2022-08-02T17:34:13.503Z,37.61
2022-08-02T17:36:45.405Z,37.80
2022-08-02T17:39:17.725Z,38.05
2022-08-02T17:41:49.250Z,38.16
2022-08-02T17:44:37.451Z,38.51
2022-08-02T17:47:08.508Z,38.61
2022-08-02T17:49:43.786Z,38.75
2022-08-02T17:52:49.611Z,38.89
2022-08-02T17:55:03.354Z,39.09
2022-08-02T18:00:20.503Z,39.35
2022-08-02T18:02:52.833Z,39.48
2022-08-02T18:05:40.054Z,39.69
2022-08-02T18:08:14.013Z,40.00
2022-08-02T18:10:43.405Z,40.28
2022-08-02T18:13:12.366Z,40.37
2022-08-02T18:15:45.761Z,40.32
2022-08-02T18:18:14.792Z,40.51
2022-08-02T18:20:42.956Z,41.19
2022-08-02T18:23:13.760Z,40.98
2022-08-02T18:25:45.894Z,41.13
2022-08-02T18:28:16.030Z,41.54
2022-08-02T18:30:43.978Z,41.63
2022-08-02T18:33:56.892Z,41.82
2022-08-02T18:35:59.803Z,42.18
2022-08-02T18:38:30.489Z,42.13
2022-08-02T18:41:02.829Z,42.44
2022-08-02T18:43:32.043Z,42.85
2022-08-02T18:46:06.554Z,42.83
2022-08-02T18:48:47.742Z,43.09
2022-08-02T18:51:18.850Z,43.28
2022-08-02T18:53:51.258Z,43.20
2022-08-02T18:56:24.799Z,43.21
2022-08-02T18:58:54.422Z,43.39
2022-08-02T19:01:32.066Z,43.39
2022-08-02T19:04:04.309Z,43.78
2022-08-02T19:06:32.397Z,44.00
2022-08-02T19:09:11.407Z,44.29
2022-08-02T19:11:47.180Z,44.12
2022-08-02T19:14:24.204Z,44.49
2022-08-02T19:16:58.178Z,44.78
2022-08-02T19:19:28.750Z,44.83
2022-08-02T19:22:17.583Z,44.92
2022-08-02T19:24:47.691Z,45.10
2022-08-02T19:27:19.670Z,45.40
2022-08-02T19:29:54.515Z,45.47
2022-08-02T19:32:39.583Z,45.59
2022-08-02T19:35:19.727Z,45.94
2022-08-02T19:38:08.796Z,46.08
2022-08-02T19:40:38.822Z,46.37
2022-08-02T19:44:21.966Z,46.34
2022-08-02T19:45:57.563Z,46.88
2022-08-02T19:48:27.169Z,46.80
2022-08-02T19:51:00.610Z,47.16
2022-08-02T19:53:48.222Z,47.04
2022-08-02T19:56:20.719Z,47.18
2022-08-02T19:58:53.973Z,47.49
2022-08-02T20:01:28.265Z,47.62
2022-08-02T20:04:13.190Z,47.83
2022-08-02T20:06:45.374Z,48.11
2022-08-02T20:09:16.514Z,48.25
2022-08-02T20:11:45.588Z,48.24
2022-08-02T20:14:13.542Z,48.19
2022-08-02T20:16:41.689Z,48.48
2022-08-02T20:19:09.837Z,48.53
2022-08-02T20:21:43.735Z,48.86
2022-08-02T20:24:14.509Z,48.66
2022-08-02T20:26:47.965Z,48.92
2022-08-02T20:29:17.662Z,49.15
2022-08-02T20:32:05.448Z,49.46
2022-08-02T20:34:33.691Z,49.80
2022-08-02T20:38:00.011Z,49.94
2022-08-02T20:39:53.732Z,50.12
2022-08-02T20:42:23.452Z,50.42
2022-08-02T20:44:55.548Z,50.72
2022-08-02T20:47:27.830Z,51.04
2022-08-02T20:50:30.314Z,50.99
2022-08-02T20:53:00.913Z,51.44
2022-08-02T20:55:31.131Z,51.81
2022-08-02T20:58:01.999Z,52.07
2022-08-02T21:00:32.208Z,52.06
2022-08-02T21:03:02.504Z,52.14
2022-08-02T21:05:54.766Z,52.25
2022-08-02T21:08:21.345Z,52.48
2022-08-02T21:10:52.483Z,52.68
2022-08-02T21:13:22.994Z,52.72
2022-08-02T21:15:52.225Z,52.49
2022-08-02T21:18:27.844Z,52.82
2022-08-02T21:20:58.740Z,52.83
2022-08-02T21:23:29.387Z,52.91
2022-08-02T21:25:59.151Z,52.95
2022-08-02T21:28:43.555Z,53.33
2022-08-02T21:31:15.767Z,53.28
2022-08-02T21:33:56.800Z,53.52
2022-08-02T21:36:33.810Z,53.42
2022-08-02T21:39:05.043Z,53.74
2022-08-02T21:41:39.759Z,53.66
2022-08-02T21:44:16.345Z,53.87
2022-08-02T21:46:49.515Z,53.83
2022-08-02T21:49:18.757Z,54.10
2022-08-02T21:51:48.955Z,54.11
2022-08-02T21:54:21.817Z,54.12
2022-08-02T21:56:52.092Z,54.28
2022-08-02T21:59:26.027Z,54.61
2022-08-02T22:01:56.956Z,54.68
2022-08-02T22:04:25.988Z,54.72
2022-08-02T22:06:57.696Z,54.96
2022-08-02T22:09:43.727Z,54.84
2022-08-02T22:12:16.951Z,55.29
2022-08-02T22:14:54.051Z,55.37
2022-08-02T22:17:50.841Z,55.52
2022-08-02T22:20:21.935Z,55.59
2022-08-02T22:22:52.338Z,55.80
2022-08-02T22:25:36.326Z,55.78
2022-08-02T22:28:37.185Z,55.94
2022-08-02T22:30:56.596Z,55.96
2022-08-02T22:33:47.144Z,55.94
2022-08-02T22:36:32.572Z,56.20
2022-08-02T22:39:01.461Z,56.37
2022-08-02T22:42:01.761Z,56.30
2022-08-02T22:44:18.850Z,56.50
2022-08-02T22:46:49.737Z,56.74
2022-08-02T22:49:38.423Z,56.88
2022-08-02T22:52:06.931Z,56.99
2022-08-02T22:54:34.891Z,56.98
2022-08-02T22:57:02.771Z,57.22
2022-08-02T22:58:41.285Z,39.31
2022-08-02T22:59:36.047Z,57.46
2022-08-02T23:02:08.891Z,57.57
2022-08-02T23:04:37.388Z,57.57
2022-08-02T23:07:05.950Z,57.87
2022-08-02T23:09:33.867Z,57.73
2022-08-02T23:12:01.729Z,58.04
2022-08-02T23:14:29.631Z,58.21
2022-08-02T23:17:16.011Z,58.12
2022-08-02T23:19:53.280Z,58.15
2022-08-02T23:22:29.520Z,58.47
2022-08-02T23:25:00.885Z,58.30
2022-08-02T23:27:29.911Z,58.29
2022-08-02T23:29:57.996Z,58.56
2022-08-02T23:32:26.345Z,58.55
2022-08-02T23:34:55.922Z,58.69
2022-08-02T23:37:24.551Z,58.81
2022-08-02T23:39:52.432Z,58.83
2022-08-02T23:42:20.348Z,58.79
2022-08-02T23:44:48.224Z,58.80
2022-08-02T23:47:17.127Z,59.02
2022-08-02T23:49:45.310Z,59.11
2022-08-02T23:52:13.483Z,58.97
2022-08-02T23:54:41.958Z,59.18
2022-08-02T23:57:20.937Z,59.42
2022-08-02T23:59:52.707Z,59.58
